createdAt,value
2019-02-17T00:02:19.571Z,18.63
2019-02-17T00:04:47.065Z,19.47
2019-02-17T00:07:14.754Z,16.47
2019-02-17T00:09:42.591Z,17.50
2019-02-17T00:12:10.370Z,16.50
2019-02-17T00:14:38.087Z,16.57
2019-02-17T00:17:06.100Z,18.90
2019-02-17T00:19:34.016Z,20.53
2019-02-17T00:22:01.458Z,23.00
2019-02-17T00:24:29.291Z,22.27
2019-02-17T00:26:56.866Z,22.37
2019-02-17T00:29:24.945Z,20.00
2019-02-17T00:31:52.531Z,22.43
2019-02-17T00:34:20.137Z,20.50
2019-02-17T00:36:48.228Z,25.23
2019-02-17T00:39:15.753Z,24.23
2019-02-17T00:41:43.662Z,23.83
2019-02-17T00:44:11.180Z,19.50
2019-02-17T00:46:38.763Z,21.90
2019-02-17T00:49:06.507Z,19.40
2019-02-17T00:51:34.302Z,20.23
2019-02-17T00:54:01.807Z,17.13
2019-02-17T00:56:29.298Z,14.27
2019-02-17T00:58:56.890Z,14.77
2019-02-17T01:01:25.352Z,14.80
2019-02-17T01:03:53.607Z,15.40
2019-02-17T01:06:21.042Z,14.17
2019-02-17T01:08:48.734Z,13.23
2019-02-17T01:11:16.266Z,15.10
2019-02-17T01:13:44.086Z,15.43
2019-02-17T01:16:11.546Z,15.60
2019-02-17T01:18:39.326Z,15.70
2019-02-17T01:21:07.094Z,16.20
2019-02-17T01:23:34.595Z,18.03
2019-02-17T01:26:02.720Z,16.47
2019-02-17T01:28:30.313Z,19.63
2019-02-17T01:30:59.151Z,17.73
2019-02-17T01:33:27.020Z,14.77
2019-02-17T01:35:55.126Z,14.37
2019-02-17T01:38:22.898Z,17.63
2019-02-17T01:40:51.474Z,14.20
2019-02-17T01:43:19.331Z,16.87
2019-02-17T01:45:46.966Z,16.20
2019-02-17T01:48:14.454Z,17.60
2019-02-17T01:50:42.067Z,12.93
2019-02-17T01:53:10.194Z,12.60
2019-02-17T01:55:37.992Z,14.80
2019-02-17T01:58:05.727Z,13.67
2019-02-17T02:00:33.827Z,14.53
2019-02-17T02:03:01.651Z,13.97
2019-02-17T02:05:29.786Z,14.87
2019-02-17T02:07:57.255Z,13.70
2019-02-17T02:10:25.135Z,14.70
2019-02-17T02:12:52.986Z,14.30
2019-02-17T02:15:20.598Z,14.83
2019-02-17T02:17:48.078Z,13.53
2019-02-17T02:20:15.625Z,14.03
2019-02-17T02:22:43.175Z,14.23
2019-02-17T02:25:10.741Z,17.00
2019-02-17T02:27:38.356Z,16.50
2019-02-17T02:30:07.661Z,16.47
2019-02-17T02:32:35.556Z,17.27
2019-02-17T02:35:03.063Z,16.87
2019-02-17T02:37:30.867Z,17.90
2019-02-17T02:39:58.380Z,19.07
2019-02-17T02:42:25.899Z,18.90
2019-02-17T02:44:53.547Z,18.67
2019-02-17T02:47:21.138Z,16.93
2019-02-17T02:49:48.777Z,16.13
2019-02-17T02:52:16.624Z,15.30
2019-02-17T02:54:44.535Z,14.60
2019-02-17T02:57:12.139Z,13.77
2019-02-17T02:59:39.709Z,14.03
2019-02-17T03:02:07.891Z,13.73
2019-02-17T03:04:35.861Z,14.10
2019-02-17T03:07:09.506Z,16.40
2019-02-17T03:09:37.605Z,13.20
2019-02-17T03:12:05.123Z,14.67
2019-02-17T03:14:32.746Z,15.00
2019-02-17T03:17:00.856Z,13.33
2019-02-17T03:19:28.799Z,14.83
2019-02-17T03:21:56.316Z,14.00
2019-02-17T03:24:23.822Z,15.30
2019-02-17T03:26:51.404Z,13.90
2019-02-17T03:29:19.249Z,14.27
2019-02-17T03:31:46.927Z,13.50
2019-02-17T03:34:14.752Z,15.10
2019-02-17T03:36:42.546Z,13.87
2019-02-17T03:39:10.512Z,17.15
2019-02-17T03:41:38.654Z,16.50
2019-02-17T03:44:06.752Z,16.13
2019-02-17T03:46:34.874Z,15.37
2019-02-17T03:49:03.010Z,16.37
2019-02-17T03:51:30.888Z,15.13
2019-02-17T03:53:59.277Z,18.47
2019-02-17T03:56:26.874Z,16.57
2019-02-17T03:58:54.343Z,15.13
2019-02-17T04:01:22.322Z,15.77
2019-02-17T04:03:49.919Z,16.00
2019-02-17T04:06:17.478Z,17.30
2019-02-17T04:08:45.827Z,14.73
2019-02-17T04:11:13.654Z,16.93
2019-02-17T04:13:41.533Z,14.70
2019-02-17T04:16:09.291Z,16.47
2019-02-17T04:18:37.178Z,14.97
2019-02-17T04:21:04.956Z,14.70
2019-02-17T04:23:32.542Z,14.60
2019-02-17T04:26:00.045Z,14.57
2019-02-17T04:28:27.670Z,13.83
2019-02-17T04:30:55.149Z,14.20
2019-02-17T04:33:23.058Z,15.03
2019-02-17T04:35:50.542Z,15.23
2019-02-17T04:38:18.203Z,15.83
2019-02-17T04:40:45.918Z,15.90
2019-02-17T04:43:13.563Z,14.00
2019-02-17T04:45:41.393Z,14.80
2019-02-17T04:48:09.242Z,14.87
2019-02-17T04:50:37.114Z,16.30
2019-02-17T04:53:04.617Z,13.90
2019-02-17T04:55:32.400Z,15.80
2019-02-17T04:58:00.161Z,15.10
2019-02-17T05:00:39.228Z,16.30
2019-02-17T05:02:57.727Z,15.43
2019-02-17T05:05:25.351Z,15.00
2019-02-17T05:07:52.904Z,15.13
2019-02-17T05:10:20.552Z,17.00
2019-02-17T05:12:48.092Z,15.40
2019-02-17T05:15:15.666Z,16.47
2019-02-17T05:17:43.163Z,15.67
2019-02-17T05:20:11.067Z,15.50
2019-02-17T05:22:39.568Z,16.40
2019-02-17T05:25:07.380Z,16.63
2019-02-17T05:27:35.263Z,16.90
2019-02-17T05:30:03.168Z,14.93
2019-02-17T05:32:31.358Z,15.47
2019-02-17T05:34:59.880Z,13.80
2019-02-17T05:37:27.801Z,15.13
2019-02-17T05:39:56.145Z,13.73
2019-02-17T05:42:23.640Z,12.70
2019-02-17T05:44:51.228Z,13.70
2019-02-17T05:47:18.749Z,13.83
2019-02-17T05:49:46.623Z,13.97
2019-02-17T05:52:14.122Z,14.30
2019-02-17T05:54:42.342Z,13.77
2019-02-17T05:57:10.229Z,13.57
2019-02-17T05:59:37.874Z,13.77
2019-02-17T06:02:05.455Z,14.90
2019-02-17T06:04:33.671Z,16.07
2019-02-17T06:07:01.460Z,15.67
2019-02-17T06:09:29.334Z,17.90
2019-02-17T06:11:57.188Z,18.83
2019-02-17T06:14:24.963Z,17.63
2019-02-17T06:16:52.412Z,17.00
2019-02-17T06:19:20.626Z,15.50
2019-02-17T06:21:48.409Z,15.30
2019-02-17T06:24:16.278Z,17.73
2019-02-17T06:26:43.762Z,16.67
2019-02-17T06:29:11.255Z,14.60
2019-02-17T06:31:38.839Z,14.43
2019-02-17T06:34:06.435Z,16.10
2019-02-17T06:36:34.279Z,17.03
2019-02-17T06:39:02.018Z,16.23
2019-02-17T06:41:29.843Z,15.63
2019-02-17T06:43:57.563Z,15.83
2019-02-17T06:46:29.523Z,13.30
2019-02-17T06:48:57.007Z,15.27
2019-02-17T06:51:24.482Z,16.00
2019-02-17T06:53:52.242Z,16.03
2019-02-17T06:56:25.707Z,12.53
2019-02-17T06:58:53.538Z,15.50
2019-02-17T07:01:24.706Z,13.70
2019-02-17T07:03:50.664Z,12.50
2019-02-17T07:06:44.010Z,13.27
2019-02-17T07:09:11.831Z,13.10
2019-02-17T07:11:39.612Z,12.37
2019-02-17T07:14:07.471Z,13.00
2019-02-17T07:16:35.055Z,13.63
2019-02-17T07:19:02.542Z,13.97
2019-02-17T07:21:30.446Z,14.50
2019-02-17T07:23:58.621Z,15.23
2019-02-17T07:26:26.584Z,14.03
2019-02-17T07:28:54.142Z,13.60
2019-02-17T07:31:22.689Z,13.23
2019-02-17T07:33:50.510Z,14.13
2019-02-17T07:36:18.190Z,13.90
2019-02-17T07:38:45.970Z,14.37
2019-02-17T07:41:13.822Z,14.10
2019-02-17T07:43:41.941Z,14.37
2019-02-17T07:46:09.556Z,13.90
2019-02-17T07:48:37.116Z,13.27
2019-02-17T07:51:05.109Z,13.87
2019-02-17T07:53:32.686Z,15.37
2019-02-17T07:56:00.995Z,12.07
2019-02-17T07:58:28.662Z,14.10
2019-02-17T08:00:56.471Z,16.50
2019-02-17T08:03:23.968Z,13.13
2019-02-17T08:05:51.815Z,14.00
2019-02-17T08:08:19.446Z,13.90
2019-02-17T08:10:47.082Z,15.70
2019-02-17T08:13:15.156Z,12.13
2019-02-17T08:15:42.734Z,11.97
2019-02-17T08:18:10.496Z,13.10
2019-02-17T08:20:38.534Z,12.73
2019-02-17T08:23:06.010Z,12.83
2019-02-17T08:25:33.806Z,14.40
2019-02-17T08:28:01.419Z,14.80
2019-02-17T08:30:29.025Z,12.83
2019-02-17T08:32:56.626Z,13.47
2019-02-17T08:35:24.557Z,13.30
2019-02-17T08:37:52.140Z,13.57
2019-02-17T08:40:20.395Z,14.20
2019-02-17T08:42:47.986Z,13.17
2019-02-17T08:45:19.144Z,12.90
2019-02-17T08:47:47.319Z,13.20
2019-02-17T08:50:14.907Z,13.10
2019-02-17T08:52:42.413Z,12.80
2019-02-17T08:55:09.997Z,14.10
2019-02-17T08:57:38.197Z,14.90
2019-02-17T09:00:07.979Z,12.70
2019-02-17T09:02:35.479Z,13.63
2019-02-17T09:05:03.358Z,13.07
2019-02-17T09:07:31.284Z,13.93
2019-02-17T09:09:59.462Z,14.57
2019-02-17T09:12:27.341Z,13.73
2019-02-17T09:14:55.398Z,13.53
2019-02-17T09:17:22.920Z,15.17
2019-02-17T09:19:50.385Z,15.50
2019-02-17T09:22:18.022Z,13.50
2019-02-17T09:24:45.788Z,14.50
2019-02-17T09:27:13.283Z,14.00
2019-02-17T09:29:41.083Z,15.17
2019-02-17T09:32:16.083Z,14.60
2019-02-17T09:34:38.226Z,14.80
2019-02-17T09:37:06.107Z,17.57
2019-02-17T09:39:34.243Z,16.90
2019-02-17T09:42:02.027Z,16.13
2019-02-17T09:44:29.822Z,15.90
2019-02-17T09:46:57.669Z,14.90
2019-02-17T09:49:25.846Z,16.20
2019-02-17T09:51:53.750Z,15.50
2019-02-17T09:54:21.511Z,15.10
2019-02-17T09:56:49.619Z,14.90
2019-02-17T09:59:17.341Z,13.53
2019-02-17T10:01:45.519Z,15.63
2019-02-17T10:04:13.270Z,15.23
2019-02-17T10:06:40.821Z,14.90
2019-02-17T10:09:09.082Z,14.23
2019-02-17T10:11:36.962Z,12.87
2019-02-17T10:14:04.531Z,14.80
2019-02-17T10:16:32.099Z,14.57
2019-02-17T10:19:00.322Z,14.67
2019-02-17T10:21:28.129Z,14.17
2019-02-17T10:23:55.734Z,14.27
2019-02-17T10:26:23.267Z,14.63
2019-02-17T10:28:50.908Z,14.27
2019-02-17T10:31:18.760Z,14.17
2019-02-17T10:33:46.380Z,15.27
2019-02-17T10:36:13.930Z,14.50
2019-02-17T10:38:41.774Z,14.43
2019-02-17T10:41:09.486Z,14.10
2019-02-17T10:43:37.028Z,15.20
2019-02-17T10:46:06.122Z,14.03
2019-02-17T10:48:34.146Z,16.60
2019-02-17T10:51:01.983Z,15.77
2019-02-17T10:53:29.515Z,14.90
2019-02-17T10:55:57.348Z,14.63
2019-02-17T10:58:25.224Z,14.20
2019-02-17T11:00:53.461Z,14.67
2019-02-17T11:03:22.958Z,15.13
2019-02-17T11:05:50.430Z,14.77
2019-02-17T11:08:18.249Z,14.97
2019-02-17T11:10:45.831Z,16.23
2019-02-17T11:13:15.114Z,14.80
2019-02-17T11:15:42.823Z,15.17
2019-02-17T11:18:11.027Z,14.77
2019-02-17T11:20:38.614Z,14.67
2019-02-17T11:23:06.650Z,16.37
2019-02-17T11:25:34.291Z,15.30
2019-02-17T11:28:01.902Z,15.60
2019-02-17T11:30:29.353Z,15.80
2019-02-17T11:32:58.215Z,16.17
2019-02-17T11:35:26.224Z,15.40
2019-02-17T11:37:53.698Z,15.70
2019-02-17T11:40:21.182Z,16.10
2019-02-17T11:42:48.662Z,15.47
2019-02-17T11:45:16.706Z,15.17
2019-02-17T11:47:44.221Z,15.83
2019-02-17T11:50:12.107Z,15.53
2019-02-17T11:52:39.632Z,14.50
2019-02-17T11:55:08.268Z,16.17
2019-02-17T11:57:36.026Z,15.60
2019-02-17T12:00:05.023Z,15.40
2019-02-17T12:02:32.833Z,16.80
2019-02-17T12:05:00.700Z,15.27
2019-02-17T12:07:28.353Z,14.43
2019-02-17T12:09:56.310Z,15.60
2019-02-17T12:12:23.835Z,16.97
2019-02-17T12:14:51.375Z,15.40
2019-02-17T12:17:19.766Z,14.30
2019-02-17T12:19:48.011Z,15.03
2019-02-17T12:22:25.059Z,16.20
2019-02-17T12:25:07.478Z,15.27
2019-02-17T12:27:48.994Z,15.13
2019-02-17T12:30:20.655Z,15.70
2019-02-17T12:32:48.431Z,16.20
2019-02-17T12:35:19.894Z,15.37
2019-02-17T12:37:48.055Z,15.90
2019-02-17T12:40:16.160Z,15.33
2019-02-17T12:42:43.615Z,15.07
2019-02-17T12:45:17.950Z,16.00
2019-02-17T12:47:57.436Z,15.33
2019-02-17T12:50:20.199Z,15.90
2019-02-17T12:52:47.989Z,16.17
2019-02-17T12:55:15.814Z,15.97
2019-02-17T12:57:43.373Z,16.40
2019-02-17T13:00:15.064Z,15.23
2019-02-17T13:02:42.693Z,14.80
2019-02-17T13:05:10.294Z,13.20
2019-02-17T13:07:39.193Z,14.93
2019-02-17T13:10:07.889Z,14.73
2019-02-17T13:12:35.369Z,13.67
2019-02-17T13:15:03.410Z,14.60
2019-02-17T13:17:31.154Z,14.10
2019-02-17T13:19:58.687Z,14.33
2019-02-17T13:22:26.597Z,13.10
2019-02-17T13:24:54.190Z,13.07
2019-02-17T13:27:21.922Z,12.63
2019-02-17T13:29:50.289Z,11.70
2019-02-17T13:32:18.140Z,11.47
2019-02-17T13:34:46.090Z,10.90
2019-02-17T13:37:13.998Z,10.63
2019-02-17T13:39:42.446Z,11.27
2019-02-17T13:42:10.018Z,12.30
2019-02-17T13:44:37.906Z,10.10
2019-02-17T13:47:05.718Z,10.73
2019-02-17T13:49:33.776Z,10.33
2019-02-17T13:52:01.647Z,11.10
2019-02-17T13:54:29.401Z,10.40
2019-02-17T13:56:57.002Z,9.73
2019-02-17T13:59:24.472Z,9.43
2019-02-17T14:01:52.518Z,10.77
2019-02-17T14:04:21.030Z,8.90
2019-02-17T14:06:49.590Z,10.00
2019-02-17T14:09:17.187Z,9.77
2019-02-17T14:11:44.726Z,10.20
2019-02-17T14:14:12.611Z,8.73
2019-02-17T14:16:40.718Z,9.67
2019-02-17T14:19:08.692Z,9.30
2019-02-17T14:21:36.319Z,9.70
2019-02-17T14:24:04.441Z,8.83
2019-02-17T14:26:32.316Z,10.00
2019-02-17T14:29:00.215Z,10.20
2019-02-17T14:31:28.556Z,9.37
2019-02-17T14:33:58.634Z,9.80
2019-02-17T14:36:26.423Z,9.70
2019-02-17T14:38:54.017Z,9.20
2019-02-17T14:41:22.148Z,10.10
2019-02-17T14:43:51.216Z,8.77
2019-02-17T14:46:18.738Z,9.70
2019-02-17T14:48:46.918Z,8.90
2019-02-17T14:51:14.398Z,8.80
2019-02-17T14:53:41.862Z,9.50
2019-02-17T14:56:09.917Z,8.90
2019-02-17T14:58:37.808Z,8.53
2019-02-17T15:01:06.009Z,8.10
2019-02-17T15:03:34.203Z,7.93
2019-02-17T15:06:02.053Z,10.00
2019-02-17T15:08:29.835Z,10.00
2019-02-17T15:10:57.746Z,9.00
2019-02-17T15:13:25.846Z,8.90
2019-02-17T15:15:53.470Z,8.80
2019-02-17T15:18:21.319Z,9.60
2019-02-17T15:20:49.103Z,7.77
2019-02-17T15:23:17.079Z,9.10
2019-02-17T15:25:44.646Z,9.47
2019-02-17T15:28:12.546Z,7.40
2019-02-17T15:30:40.683Z,8.60
2019-02-17T15:33:08.514Z,8.83
2019-02-17T15:35:51.666Z,8.30
2019-02-17T15:38:19.546Z,8.70
2019-02-17T15:40:48.042Z,9.50
2019-02-17T15:43:15.926Z,8.40
2019-02-17T15:45:43.394Z,8.90
2019-02-17T15:48:11.186Z,8.87
2019-02-17T15:50:38.746Z,8.80
2019-02-17T15:53:06.765Z,9.63
2019-02-17T15:55:34.396Z,9.67
2019-02-17T15:58:02.019Z,10.50
2019-02-17T16:00:29.650Z,9.60
2019-02-17T16:02:57.550Z,9.00
2019-02-17T16:05:25.752Z,9.20
2019-02-17T16:07:55.719Z,12.43
2019-02-17T16:10:23.191Z,10.77
2019-02-17T16:12:51.174Z,14.40
2019-02-17T16:15:19.428Z,17.03
2019-02-17T16:17:47.220Z,13.10
2019-02-17T16:20:17.273Z,13.03
2019-02-17T16:22:44.877Z,21.57
2019-02-17T16:25:12.746Z,18.73
2019-02-17T16:27:40.890Z,18.43
2019-02-17T16:30:11.146Z,13.97
2019-02-17T16:32:38.615Z,12.50
2019-02-17T16:35:06.278Z,10.87
2019-02-17T16:37:33.830Z,10.87
2019-02-17T16:40:01.342Z,9.50
2019-02-17T16:42:28.859Z,10.27
2019-02-17T16:44:56.441Z,10.20
2019-02-17T16:47:24.418Z,9.70
2019-02-17T16:49:51.970Z,8.60
2019-02-17T16:52:19.658Z,9.03
2019-02-17T16:54:48.025Z,8.40
2019-02-17T16:57:15.866Z,7.93
2019-02-17T16:59:43.646Z,9.00
2019-02-17T17:02:11.146Z,7.90
2019-02-17T17:04:47.822Z,6.60
2019-02-17T17:07:08.808Z,7.37
2019-02-17T17:09:36.598Z,7.00
2019-02-17T17:12:04.535Z,6.77
2019-02-17T17:14:32.178Z,8.50
2019-02-17T17:17:01.033Z,7.93
2019-02-17T17:19:29.702Z,12.93
2019-02-17T17:21:57.346Z,11.73
2019-02-17T17:24:25.708Z,10.57
2019-02-17T17:26:53.440Z,9.40
2019-02-17T17:29:21.150Z,8.60
2019-02-17T17:31:48.726Z,14.03
2019-02-17T17:34:16.663Z,10.50
2019-02-17T17:36:44.195Z,10.27
2019-02-17T17:39:11.724Z,14.23
2019-02-17T17:41:39.230Z,18.50
2019-02-17T17:44:06.753Z,16.50
2019-02-17T17:46:34.261Z,15.90
2019-02-17T17:49:01.872Z,14.53
2019-02-17T17:51:29.478Z,16.60
2019-02-17T17:53:57.092Z,14.70
2019-02-17T17:56:24.683Z,13.40
2019-02-17T17:58:52.298Z,19.77
2019-02-17T18:01:19.850Z,12.90
2019-02-17T18:03:47.318Z,12.27
2019-02-17T18:06:17.112Z,10.93
2019-02-17T18:08:44.618Z,11.93
2019-02-17T18:11:12.834Z,11.83
2019-02-17T18:13:40.658Z,11.73
2019-02-17T18:16:08.779Z,10.07
2019-02-17T18:18:36.373Z,14.63
2019-02-17T18:21:04.361Z,11.97
2019-02-17T18:23:32.239Z,13.57
2019-02-17T18:26:00.047Z,14.40
2019-02-17T18:28:29.375Z,14.27
2019-02-17T18:30:56.879Z,18.23
2019-02-17T18:33:24.493Z,20.87
2019-02-17T18:35:52.587Z,18.77
2019-02-17T18:38:20.187Z,17.07
2019-02-17T18:40:47.994Z,16.67
2019-02-17T18:43:15.561Z,19.07
2019-02-17T18:45:43.403Z,17.17
2019-02-17T18:48:13.318Z,16.27
2019-02-17T18:50:41.667Z,18.30
2019-02-17T18:53:09.247Z,19.07
2019-02-17T18:55:37.106Z,20.50
2019-02-17T18:58:04.636Z,23.50
2019-02-17T19:00:32.530Z,22.63
2019-02-17T19:03:00.167Z,22.90
2019-02-17T19:05:31.826Z,20.43
2019-02-17T19:07:57.689Z,20.83
2019-02-17T19:10:25.307Z,20.03
2019-02-17T19:12:53.156Z,18.80
2019-02-17T19:15:20.823Z,18.20
2019-02-17T19:17:48.459Z,15.13
2019-02-17T19:20:17.107Z,14.63
2019-02-17T19:22:44.984Z,16.93
2019-02-17T19:25:15.650Z,16.40
2019-02-17T19:27:43.230Z,15.73
2019-02-17T19:30:12.387Z,17.27
2019-02-17T19:32:39.906Z,16.47
2019-02-17T19:35:08.695Z,16.17
2019-02-17T19:37:36.623Z,17.00
2019-02-17T19:40:04.515Z,16.50
2019-02-17T19:42:32.330Z,13.23
2019-02-17T19:45:00.107Z,13.70
2019-02-17T19:47:28.371Z,11.63
2019-02-17T19:49:56.222Z,12.20
2019-02-17T19:52:24.452Z,12.40
2019-02-17T19:54:51.991Z,12.50
2019-02-17T20:00:58.083Z,11.50
2019-02-17T20:03:35.042Z,12.50
2019-02-17T20:06:03.545Z,12.60
2019-02-17T20:08:32.019Z,12.80
2019-02-17T20:11:00.844Z,14.10
2019-02-17T20:13:29.062Z,13.70
2019-02-17T20:15:56.697Z,14.20
2019-02-17T20:18:24.230Z,14.23
2019-02-17T20:20:52.015Z,12.90
2019-02-17T20:23:20.210Z,11.50
2019-02-17T20:25:48.032Z,14.70
2019-02-17T20:28:15.754Z,16.60
2019-02-17T20:30:43.355Z,14.33
2019-02-17T20:33:11.142Z,13.17
2019-02-17T20:35:39.361Z,12.40
2019-02-17T20:38:07.002Z,13.00
2019-02-17T20:40:34.627Z,11.30
2019-02-17T20:43:02.380Z,10.60
2019-02-17T20:45:30.350Z,10.13
2019-02-17T20:47:58.301Z,9.77
2019-02-17T20:50:26.231Z,10.90
2019-02-17T20:52:53.850Z,10.20
2019-02-17T20:55:21.520Z,10.23
2019-02-17T20:57:49.398Z,9.60
2019-02-17T21:00:17.536Z,8.40
2019-02-17T21:02:45.435Z,8.90
2019-02-17T21:05:12.975Z,9.23
2019-02-17T21:07:41.252Z,9.93
2019-02-17T21:10:08.823Z,9.67
2019-02-17T21:12:36.640Z,9.80
2019-02-17T21:15:06.308Z,9.03
2019-02-17T21:17:34.290Z,10.40
2019-02-17T21:20:02.275Z,10.00
2019-02-17T21:22:30.097Z,10.53
2019-02-17T21:24:58.180Z,12.00
2019-02-17T21:27:25.843Z,15.10
2019-02-17T21:29:53.510Z,18.90
2019-02-17T21:32:22.452Z,18.50
2019-02-17T21:34:50.332Z,14.80
2019-02-17T21:37:17.988Z,17.07
2019-02-17T21:39:45.542Z,20.20
2019-02-17T21:42:13.098Z,19.37
2019-02-17T21:44:40.846Z,18.57
2019-02-17T21:47:08.426Z,14.10
2019-02-17T21:49:36.059Z,14.57
2019-02-17T21:52:03.911Z,10.73
2019-02-17T21:54:31.419Z,11.67
2019-02-17T21:56:58.950Z,11.17
2019-02-17T21:59:26.842Z,11.07
2019-02-17T22:01:54.560Z,10.10
2019-02-17T22:04:22.139Z,12.00
2019-02-17T22:06:50.055Z,11.97
2019-02-17T22:09:18.177Z,13.10
2019-02-17T22:11:46.324Z,11.20
2019-02-17T22:14:14.100Z,12.10
2019-02-17T22:16:42.055Z,13.10
2019-02-17T22:19:10.267Z,12.10
2019-02-17T22:21:38.707Z,12.77
2019-02-17T22:24:07.425Z,11.70
2019-02-17T22:26:35.114Z,9.87
2019-02-17T22:29:02.774Z,10.23
2019-02-17T22:31:30.636Z,10.57
2019-02-17T22:33:58.582Z,12.00
2019-02-17T22:36:26.334Z,10.43
2019-02-17T22:38:54.286Z,10.93
2019-02-17T22:41:22.232Z,10.27
2019-02-17T22:43:49.830Z,11.67
2019-02-17T22:46:17.733Z,12.03
2019-02-17T22:48:45.299Z,12.20
2019-02-17T22:51:13.275Z,10.63
2019-02-17T22:53:43.892Z,12.00
2019-02-17T22:56:11.166Z,12.20
2019-02-17T22:58:39.327Z,10.23
2019-02-17T23:01:09.338Z,10.70
2019-02-17T23:03:37.197Z,10.80
2019-02-17T23:06:04.875Z,11.27
2019-02-17T23:08:32.487Z,11.60
2019-02-17T23:11:00.127Z,12.03
2019-02-17T23:13:27.635Z,11.03
2019-02-17T23:15:55.395Z,9.93
2019-02-17T23:18:23.566Z,12.87
2019-02-17T23:20:51.066Z,10.97
2019-02-17T23:23:18.734Z,11.83
2019-02-17T23:25:46.290Z,10.37
2019-02-17T23:28:13.822Z,12.50
2019-02-17T23:30:41.610Z,10.80
2019-02-17T23:33:09.188Z,10.37
2019-02-17T23:35:36.639Z,11.63
2019-02-17T23:38:04.182Z,11.70
2019-02-17T23:40:31.771Z,10.83
2019-02-17T23:42:59.386Z,11.37
2019-02-17T23:45:27.562Z,10.60
2019-02-17T23:47:55.079Z,11.43
2019-02-17T23:50:23.015Z,12.37
2019-02-17T23:52:50.978Z,12.03
2019-02-17T23:55:18.490Z,11.83
2019-02-17T23:57:46.078Z,12.30
